createdAt,value
2022-08-03T00:01:25.546Z,67.94
2022-08-03T00:03:27.738Z,67.90
2022-08-03T00:05:29.902Z,67.97
2022-08-03T00:07:31.953Z,68.07
2022-08-03T00:09:35.694Z,68.45
2022-08-03T00:11:38.959Z,68.53
2022-08-03T00:13:41.298Z,68.49
2022-08-03T00:15:43.713Z,68.44
2022-08-03T00:17:52.782Z,68.62
2022-08-03T00:19:55.735Z,68.21
2022-08-03T00:21:57.763Z,68.34
2022-08-03T00:23:59.961Z,68.21
2022-08-03T00:26:02.249Z,68.34
2022-08-03T00:28:05.087Z,68.20
2022-08-03T00:30:07.829Z,67.78
2022-08-03T00:32:09.902Z,67.90
2022-08-03T00:34:14.063Z,67.98
2022-08-03T00:36:16.152Z,68.27
2022-08-03T00:38:26.511Z,68.25
2022-08-03T00:40:29.065Z,68.31
2022-08-03T00:42:31.371Z,68.60
2022-08-03T00:44:40.868Z,68.13
2022-08-03T00:46:42.810Z,68.21
2022-08-03T00:48:44.744Z,68.58
2022-08-03T00:50:48.296Z,68.34
2022-08-03T00:52:57.684Z,68.40
2022-08-03T00:55:01.534Z,67.95
2022-08-03T00:57:03.658Z,68.46
2022-08-03T00:59:05.844Z,68.11
2022-08-03T01:01:08.156Z,68.52
2022-08-03T01:03:12.100Z,68.31
2022-08-03T01:05:14.603Z,68.52
2022-08-03T01:07:45.335Z,69.22
2022-08-03T01:10:12.704Z,68.91
2022-08-03T01:12:25.546Z,68.83
2022-08-03T01:14:46.977Z,68.59
2022-08-03T01:16:54.848Z,69.14
2022-08-03T01:19:33.742Z,68.93
2022-08-03T01:22:04.547Z,68.92
2022-08-03T01:24:32.716Z,68.76
2022-08-03T01:26:52.857Z,68.88
2022-08-03T01:29:16.531Z,69.23
2022-08-03T01:31:24.217Z,69.74
2022-08-03T01:33:35.812Z,69.74
2022-08-03T01:35:55.567Z,70.11
2022-08-03T01:38:00.987Z,70.08
2022-08-03T01:40:05.271Z,70.16
2022-08-03T01:42:10.431Z,69.95
2022-08-03T01:44:30.155Z,70.01
2022-08-03T01:46:35.054Z,69.82
2022-08-03T01:48:40.024Z,69.94
2022-08-03T01:50:43.766Z,69.65
2022-08-03T01:52:48.367Z,69.62
2022-08-03T01:54:52.976Z,69.73
2022-08-03T01:56:58.746Z,70.29
2022-08-03T01:59:02.985Z,69.98
2022-08-03T02:01:07.243Z,69.89
2022-08-03T02:03:12.839Z,69.81
2022-08-03T02:05:17.267Z,69.52
2022-08-03T02:07:21.035Z,69.66
2022-08-03T02:09:25.869Z,69.60
2022-08-03T02:11:32.295Z,69.34
2022-08-03T02:13:38.543Z,69.33
2022-08-03T02:15:44.279Z,69.08
2022-08-03T02:17:47.878Z,69.40
2022-08-03T02:19:51.469Z,69.33
2022-08-03T02:21:56.316Z,69.00
2022-08-03T02:24:03.188Z,69.29
2022-08-03T02:26:09.674Z,69.14
2022-08-03T02:28:33.206Z,69.32
2022-08-03T02:30:40.564Z,69.25
2022-08-03T02:32:48.896Z,69.39
2022-08-03T02:34:53.533Z,69.49
2022-08-03T02:37:00.464Z,69.23
2022-08-03T02:39:03.990Z,69.26
2022-08-03T02:41:11.854Z,69.20
2022-08-03T02:43:24.460Z,69.34
2022-08-03T02:45:29.032Z,69.25
2022-08-03T02:47:53.136Z,69.48
2022-08-03T02:49:58.687Z,69.72
2022-08-03T02:52:02.787Z,69.52
2022-08-03T02:54:06.706Z,69.72
2022-08-03T02:56:10.037Z,69.72
2022-08-03T02:58:25.048Z,69.68
2022-08-03T03:00:28.613Z,69.46
2022-08-03T03:02:31.350Z,69.33
2022-08-03T03:04:34.176Z,69.25
2022-08-03T03:06:36.443Z,69.20
2022-08-03T03:08:39.404Z,69.06
2022-08-03T03:10:42.403Z,69.03
2022-08-03T03:12:46.882Z,69.02
2022-08-03T03:14:49.108Z,69.21
2022-08-03T03:16:52.732Z,69.13
2022-08-03T03:19:02.008Z,68.97
2022-08-03T03:21:05.169Z,69.04
2022-08-03T03:23:08.738Z,69.16
2022-08-03T03:25:10.710Z,69.00
2022-08-03T03:27:16.481Z,68.90
2022-08-03T03:29:19.106Z,68.87
2022-08-03T03:31:21.112Z,69.23
2022-08-03T03:33:23.822Z,68.95
2022-08-03T03:35:27.385Z,69.23
2022-08-03T03:37:29.372Z,69.04
2022-08-03T03:39:31.279Z,69.12
2022-08-03T03:41:33.897Z,69.29
2022-08-03T03:43:36.918Z,69.06
2022-08-03T03:45:41.609Z,69.12
2022-08-03T03:47:43.535Z,68.87
2022-08-03T03:49:46.253Z,69.08
2022-08-03T03:51:48.347Z,69.00
2022-08-03T03:54:01.232Z,69.09
2022-08-03T03:56:03.262Z,69.19
2022-08-03T03:58:05.555Z,69.44
2022-08-03T04:00:08.105Z,69.27
2022-08-03T04:02:11.139Z,68.93
2022-08-03T04:04:31.390Z,68.79
2022-08-03T04:06:51.635Z,68.71
2022-08-03T04:09:19.309Z,68.74
2022-08-03T04:11:30.407Z,68.63
2022-08-03T04:13:40.467Z,68.50
2022-08-03T04:15:42.960Z,68.75
2022-08-03T04:17:46.197Z,68.41
2022-08-03T04:19:51.497Z,68.76
2022-08-03T04:21:58.179Z,68.63
2022-08-03T04:24:03.746Z,68.85
2022-08-03T04:26:10.068Z,68.86
2022-08-03T04:28:30.963Z,68.71
2022-08-03T04:30:37.830Z,68.75
2022-08-03T04:32:45.473Z,68.88
2022-08-03T04:34:48.091Z,69.05
2022-08-03T04:36:53.109Z,69.24
2022-08-03T04:39:18.481Z,69.39
2022-08-03T04:41:23.377Z,69.41
2022-08-03T04:43:26.259Z,69.21
2022-08-03T04:45:30.458Z,69.22
2022-08-03T04:47:36.587Z,68.84
2022-08-03T04:49:39.424Z,69.09
2022-08-03T04:51:42.824Z,69.33
2022-08-03T04:53:44.857Z,69.55
2022-08-03T04:55:46.939Z,69.70
2022-08-03T04:57:48.700Z,69.71
2022-08-03T05:00:02.542Z,69.88
2022-08-03T05:02:05.068Z,70.05
2022-08-03T05:04:08.091Z,69.95
2022-08-03T05:06:11.360Z,70.13
2022-08-03T05:08:13.593Z,69.88
2022-08-03T05:10:16.630Z,69.69
2022-08-03T05:12:18.801Z,69.90
2022-08-03T05:14:28.074Z,69.82
2022-08-03T05:16:30.202Z,70.12
2022-08-03T05:18:32.574Z,70.05
2022-08-03T05:20:34.613Z,70.03
2022-08-03T05:22:36.533Z,70.17
2022-08-03T05:24:38.360Z,70.39
2022-08-03T05:26:47.923Z,70.14
2022-08-03T05:28:51.337Z,70.02
2022-08-03T05:30:53.491Z,70.09
2022-08-03T05:32:55.543Z,69.79
2022-08-03T05:34:57.254Z,69.74
2022-08-03T05:36:58.950Z,69.90
2022-08-03T05:39:02.794Z,69.83
2022-08-03T05:41:21.590Z,69.89
2022-08-03T05:43:25.431Z,70.10
2022-08-03T05:45:28.546Z,70.13
2022-08-03T05:47:30.581Z,70.10
2022-08-03T05:49:32.362Z,70.42
2022-08-03T05:51:34.473Z,70.75
2022-08-03T05:53:36.167Z,70.73
2022-08-03T05:55:37.873Z,70.41
2022-08-03T05:57:40.843Z,70.26
2022-08-03T05:59:53.715Z,70.62
2022-08-03T06:01:57.541Z,70.58
2022-08-03T06:03:59.761Z,70.88
2022-08-03T06:06:01.679Z,70.88
2022-08-03T06:08:03.956Z,70.89
2022-08-03T06:10:36.450Z,70.86
2022-08-03T06:12:28.438Z,71.01
2022-08-03T06:14:30.217Z,70.93
2022-08-03T06:16:32.120Z,70.97
2022-08-03T06:18:34.298Z,71.20
2022-08-03T06:20:36.038Z,71.55
2022-08-03T06:22:37.708Z,71.32
2022-08-03T06:24:53.531Z,71.63
2022-08-03T06:26:57.484Z,71.68
2022-08-03T06:28:59.310Z,71.58
2022-08-03T06:31:01.590Z,71.46
2022-08-03T06:33:03.273Z,71.77
2022-08-03T06:35:08.082Z,71.85
2022-08-03T06:37:09.816Z,72.06
2022-08-03T06:39:13.102Z,71.97
2022-08-03T06:41:14.911Z,71.45
2022-08-03T06:43:16.658Z,71.82
2022-08-03T06:45:18.694Z,71.70
2022-08-03T06:47:20.380Z,71.42
2022-08-03T06:49:22.150Z,71.16
2022-08-03T06:52:02.572Z,71.03
2022-08-03T06:53:45.602Z,70.79
2022-08-03T06:55:51.114Z,70.77
2022-08-03T06:57:59.959Z,70.54
2022-08-03T07:00:09.553Z,70.84
2022-08-03T07:02:16.158Z,70.45
2022-08-03T07:04:21.157Z,70.75
2022-08-03T07:06:22.939Z,70.43
2022-08-03T07:08:33.194Z,71.09
2022-08-03T07:10:36.372Z,71.03
2022-08-03T07:12:55.815Z,70.81
2022-08-03T07:15:01.889Z,71.08
2022-08-03T07:17:04.769Z,70.72
2022-08-03T07:19:13.685Z,70.79
2022-08-03T07:21:17.090Z,70.83
2022-08-03T07:23:19.324Z,70.60
2022-08-03T07:25:21.746Z,70.54
2022-08-03T07:27:23.688Z,70.56
2022-08-03T07:29:25.513Z,70.44
2022-08-03T07:31:27.413Z,70.43
2022-08-03T07:33:35.931Z,70.29
2022-08-03T07:35:37.886Z,69.95
2022-08-03T07:37:39.641Z,69.87
2022-08-03T07:39:41.359Z,69.71
2022-08-03T07:41:43.065Z,69.38
2022-08-03T07:43:45.988Z,69.34
2022-08-03T07:45:50.813Z,68.95
2022-08-03T07:47:53.580Z,69.13
2022-08-03T07:49:56.122Z,68.87
2022-08-03T07:52:17.042Z,68.88
2022-08-03T07:54:18.948Z,68.94
2022-08-03T07:56:21.528Z,68.83
2022-08-03T07:58:24.285Z,68.51
2022-08-03T08:00:26.254Z,68.10
2022-08-03T08:02:28.000Z,67.96
2022-08-03T08:04:30.245Z,68.06
2022-08-03T08:06:32.778Z,68.02
2022-08-03T08:08:34.612Z,67.98
2022-08-03T08:10:36.676Z,67.93
2022-08-03T08:12:39.390Z,68.02
2022-08-03T08:14:42.231Z,68.32
2022-08-03T08:16:43.907Z,67.80
2022-08-03T08:18:45.662Z,67.93
2022-08-03T08:20:47.876Z,67.49
2022-08-03T08:22:55.077Z,67.39
2022-08-03T08:24:56.875Z,67.40
2022-08-03T08:26:58.713Z,66.90
2022-08-03T08:29:00.459Z,66.76
2022-08-03T08:31:02.629Z,66.60
2022-08-03T08:33:04.501Z,66.73
2022-08-03T08:35:07.240Z,66.64
2022-08-03T08:37:08.918Z,66.61
2022-08-03T08:39:10.619Z,66.83
2022-08-03T08:41:13.907Z,66.65
2022-08-03T08:43:15.635Z,66.32
2022-08-03T08:45:18.970Z,65.69
2022-08-03T08:47:24.877Z,65.75
2022-08-03T08:49:28.324Z,65.38
2022-08-03T08:51:54.569Z,65.69
2022-08-03T08:53:57.867Z,65.34
2022-08-03T08:56:02.343Z,65.83
2022-08-03T08:58:06.322Z,66.05
2022-08-03T09:00:11.603Z,66.06
2022-08-03T09:02:13.842Z,66.05
2022-08-03T09:04:16.096Z,66.05
2022-08-03T09:06:17.830Z,66.31
2022-08-03T09:08:20.077Z,66.35
2022-08-03T09:10:22.197Z,66.23
2022-08-03T09:12:42.164Z,66.19
2022-08-03T09:15:00.883Z,65.77
2022-08-03T09:17:06.166Z,65.91
2022-08-03T09:19:14.823Z,65.96
2022-08-03T09:21:32.010Z,65.71
2022-08-03T09:24:02.178Z,65.62
2022-08-03T09:26:04.842Z,65.39
2022-08-03T09:28:13.802Z,65.17
2022-08-03T09:30:36.352Z,65.18
2022-08-03T09:32:38.477Z,65.10
2022-08-03T09:34:40.219Z,65.67
2022-08-03T09:36:46.904Z,65.47
2022-08-03T09:39:06.489Z,65.61
2022-08-03T09:41:18.637Z,65.58
2022-08-03T09:43:23.631Z,65.82
2022-08-03T09:45:30.116Z,65.72
2022-08-03T09:47:36.473Z,65.51
2022-08-03T09:49:41.612Z,65.07
2022-08-03T09:52:30.272Z,64.93
2022-08-03T09:54:10.735Z,65.00
2022-08-03T09:56:33.346Z,64.63
2022-08-03T09:58:47.062Z,64.80
2022-08-03T10:01:23.952Z,64.28
2022-08-03T10:03:28.883Z,63.93
2022-08-03T10:05:33.724Z,63.78
2022-08-03T10:07:48.353Z,63.74
2022-08-03T10:10:30.322Z,63.78
2022-08-03T10:12:21.964Z,63.58
2022-08-03T10:14:26.526Z,63.45
2022-08-03T10:16:33.232Z,63.65
2022-08-03T10:18:35.277Z,63.41
2022-08-03T10:20:44.376Z,63.13
2022-08-03T10:22:57.634Z,62.85
2022-08-03T10:25:06.645Z,62.64
2022-08-03T10:27:10.608Z,62.55
2022-08-03T10:29:18.687Z,62.42
2022-08-03T10:31:24.116Z,62.10
2022-08-03T10:33:50.954Z,61.87
2022-08-03T10:35:57.581Z,61.36
2022-08-03T10:38:02.093Z,61.44
2022-08-03T10:40:05.263Z,61.42
2022-08-03T10:42:13.506Z,61.20
2022-08-03T10:44:21.143Z,60.91
2022-08-03T10:46:22.955Z,60.37
2022-08-03T10:48:26.520Z,60.59
2022-08-03T10:50:28.681Z,60.71
2022-08-03T10:52:32.492Z,60.57
2022-08-03T10:55:07.618Z,60.61
2022-08-03T10:57:58.339Z,60.26
2022-08-03T11:00:02.846Z,60.40
2022-08-03T11:02:08.374Z,60.53
2022-08-03T11:04:19.941Z,60.00
2022-08-03T11:06:24.782Z,59.87
2022-08-03T11:08:32.651Z,59.49
2022-08-03T11:10:35.461Z,59.26
2022-08-03T11:12:37.410Z,58.76
2022-08-03T11:14:49.190Z,58.43
2022-08-03T11:17:07.353Z,58.31
2022-08-03T11:19:20.151Z,58.05
2022-08-03T11:21:51.269Z,57.78
2022-08-03T11:24:04.209Z,57.87
2022-08-03T11:26:11.500Z,57.89
2022-08-03T11:28:27.367Z,57.80
2022-08-03T11:30:29.868Z,57.57
2022-08-03T11:32:37.734Z,57.45
2022-08-03T11:35:11.863Z,57.40
2022-08-03T11:37:21.953Z,57.32
2022-08-03T11:39:47.587Z,57.24
2022-08-03T11:41:49.299Z,57.51
2022-08-03T11:43:51.027Z,57.85
2022-08-03T11:46:28.271Z,58.00
2022-08-03T11:48:34.407Z,58.21
2022-08-03T11:50:38.035Z,58.30
2022-08-03T11:52:42.628Z,58.58
2022-08-03T11:54:44.699Z,58.62
2022-08-03T11:56:47.614Z,58.59
2022-08-03T11:59:11.262Z,58.36
2022-08-03T12:01:22.894Z,57.99
2022-08-03T12:03:24.914Z,57.62
2022-08-03T12:05:38.553Z,57.40
2022-08-03T12:08:04.872Z,57.35
2022-08-03T12:10:12.901Z,56.95
2022-08-03T12:12:16.440Z,56.86
2022-08-03T12:14:48.823Z,56.64
2022-08-03T12:16:46.811Z,56.01
2022-08-03T12:19:15.627Z,55.62
2022-08-03T12:21:18.893Z,55.13
2022-08-03T12:23:20.708Z,55.34
2022-08-03T12:25:39.569Z,55.39
2022-08-03T12:27:41.632Z,54.91
2022-08-03T12:29:43.417Z,54.51
2022-08-03T12:32:00.229Z,54.22
2022-08-03T12:34:04.446Z,53.53
2022-08-03T12:36:09.481Z,54.00
2022-08-03T12:38:13.016Z,53.34
2022-08-03T12:40:20.552Z,53.18
2022-08-03T12:42:31.109Z,52.93
2022-08-03T12:44:35.612Z,51.71
2022-08-03T12:46:43.952Z,51.58
2022-08-03T12:49:06.329Z,51.46
2022-08-03T12:51:12.011Z,51.10
2022-08-03T12:53:29.140Z,50.79
2022-08-03T12:55:57.833Z,50.35
2022-08-03T12:57:56.133Z,49.46
2022-08-03T13:00:21.633Z,49.69
2022-08-03T13:02:31.601Z,49.05
2022-08-03T13:04:36.014Z,49.69
2022-08-03T13:06:37.791Z,49.21
2022-08-03T13:08:39.694Z,48.66
2022-08-03T13:10:42.779Z,49.17
2022-08-03T13:12:58.689Z,49.31
2022-08-03T13:15:01.199Z,49.27
2022-08-03T13:17:03.812Z,49.33
2022-08-03T13:19:06.331Z,49.32
2022-08-03T13:21:17.216Z,49.93
2022-08-03T13:23:22.074Z,50.04
2022-08-03T13:25:24.483Z,50.08
2022-08-03T13:28:04.551Z,50.30
2022-08-03T13:29:48.038Z,49.93
2022-08-03T13:31:50.310Z,49.25
2022-08-03T13:33:52.879Z,49.82
2022-08-03T13:35:55.287Z,49.74
2022-08-03T13:37:57.042Z,49.04
2022-08-03T13:40:02.726Z,49.26
2022-08-03T13:42:06.834Z,48.92
2022-08-03T13:44:29.409Z,48.74
2022-08-03T13:46:30.296Z,48.74
2022-08-03T13:48:36.587Z,48.93
2022-08-03T13:50:43.061Z,48.34
2022-08-03T13:52:57.388Z,48.33
2022-08-03T13:54:59.992Z,48.47
2022-08-03T13:58:01.422Z,47.96
2022-08-03T13:59:25.361Z,47.81
2022-08-03T14:01:54.035Z,47.96
2022-08-03T14:03:52.546Z,46.85
2022-08-03T14:05:54.207Z,46.45
2022-08-03T14:07:56.854Z,45.55
2022-08-03T14:10:06.149Z,45.25
2022-08-03T14:12:09.011Z,44.72
2022-08-03T14:14:11.182Z,44.64
2022-08-03T14:16:16.964Z,44.45
2022-08-03T14:18:29.169Z,43.85
2022-08-03T14:20:48.805Z,44.08
2022-08-03T14:22:56.397Z,43.96
2022-08-03T14:24:58.142Z,44.23
2022-08-03T14:27:07.093Z,44.59
2022-08-03T14:29:10.390Z,44.77
2022-08-03T14:32:10.417Z,45.34
2022-08-03T14:33:34.533Z,45.27
2022-08-03T14:35:36.543Z,45.41
2022-08-03T14:37:38.431Z,45.15
2022-08-03T14:42:02.562Z,45.06
2022-08-03T14:44:05.504Z,45.07
2022-08-03T14:46:07.224Z,45.21
2022-08-03T14:50:30.651Z,44.82
2022-08-03T14:50:42.040Z,44.64
2022-08-03T14:53:05.097Z,44.59
2022-08-03T14:55:07.854Z,44.84
2022-08-03T14:57:09.615Z,44.54
2022-08-03T14:59:11.344Z,44.21
2022-08-03T15:02:02.271Z,44.18
2022-08-03T15:03:34.910Z,44.44
2022-08-03T15:05:36.681Z,44.45
2022-08-03T15:07:39.577Z,44.29
2022-08-03T15:09:41.329Z,44.23
2022-08-03T15:11:43.130Z,44.23
2022-08-03T15:13:44.804Z,44.11
2022-08-03T15:15:47.787Z,44.13
2022-08-03T15:18:00.173Z,44.52
2022-08-03T15:20:23.370Z,44.80
2022-08-03T15:22:25.239Z,44.82
2022-08-03T15:24:36.537Z,45.10
2022-08-03T15:26:41.545Z,45.12
2022-08-03T15:28:43.613Z,45.79
2022-08-03T15:30:45.427Z,45.56
2022-08-03T15:32:56.355Z,45.56
2022-08-03T15:34:58.159Z,46.04
2022-08-03T15:37:16.359Z,45.99
2022-08-03T15:39:18.439Z,45.68
2022-08-03T15:41:20.337Z,46.48
2022-08-03T15:43:23.160Z,46.42
2022-08-03T15:45:24.873Z,46.65
2022-08-03T15:47:29.606Z,46.39
2022-08-03T15:49:31.346Z,46.45
2022-08-03T15:51:33.207Z,46.55
2022-08-03T15:53:35.215Z,46.37
2022-08-03T15:55:36.942Z,46.70
2022-08-03T15:59:03.928Z,46.91
2022-08-03T16:00:02.334Z,46.82
2022-08-03T16:02:04.260Z,46.88
2022-08-03T16:04:06.095Z,46.76
2022-08-03T16:06:08.114Z,46.44
2022-08-03T16:08:13.645Z,46.58
2022-08-03T16:10:17.573Z,46.11
2022-08-03T16:12:19.271Z,46.46
2022-08-03T16:14:32.495Z,46.29
2022-08-03T16:16:41.031Z,46.67
2022-08-03T16:18:42.872Z,46.43
2022-08-03T16:20:45.271Z,46.34
2022-08-03T16:22:54.408Z,46.23
2022-08-03T16:24:56.402Z,46.96
2022-08-03T16:26:58.183Z,46.68
2022-08-03T16:29:02.518Z,47.05
2022-08-03T16:31:05.737Z,47.33
2022-08-03T16:33:07.655Z,47.88
2022-08-03T16:35:19.236Z,48.35
2022-08-03T16:37:38.121Z,48.89
2022-08-03T16:39:40.675Z,48.85
2022-08-03T16:41:54.490Z,49.28
2022-08-03T16:44:08.082Z,49.03
2022-08-03T16:46:11.758Z,49.70
2022-08-03T16:48:14.419Z,49.85
2022-08-03T16:50:19.872Z,49.78
2022-08-03T16:52:21.953Z,50.16
2022-08-03T16:54:24.664Z,49.91
2022-08-03T16:56:29.748Z,49.86
2022-08-03T16:58:41.800Z,49.95
2022-08-03T17:00:46.293Z,49.94
2022-08-03T17:02:55.389Z,50.34
2022-08-03T17:04:58.516Z,49.79
2022-08-03T17:07:01.558Z,49.88
2022-08-03T17:09:17.963Z,49.74
2022-08-03T17:11:20.427Z,50.02
2022-08-03T17:13:22.884Z,50.17
2022-08-03T17:15:51.719Z,50.37
2022-08-03T17:18:04.249Z,50.70
2022-08-03T17:20:09.734Z,50.49
2022-08-03T17:22:20.581Z,50.48
2022-08-03T17:24:41.112Z,50.65
2022-08-03T17:26:49.999Z,50.63
2022-08-03T17:28:57.499Z,50.51
2022-08-03T17:31:23.496Z,50.52
2022-08-03T17:33:35.609Z,50.31
2022-08-03T17:35:38.456Z,50.05
2022-08-03T17:37:57.430Z,50.16
2022-08-03T17:40:00.815Z,49.80
2022-08-03T17:42:29.457Z,49.79
2022-08-03T17:44:38.748Z,49.89
2022-08-03T17:46:46.022Z,49.80
2022-08-03T17:48:49.662Z,49.44
2022-08-03T17:50:55.576Z,49.09
2022-08-03T17:53:14.469Z,49.43
2022-08-03T17:55:57.715Z,49.55
2022-08-03T17:58:02.205Z,49.45
2022-08-03T18:00:24.711Z,49.59
2022-08-03T18:02:54.958Z,49.75
2022-08-03T18:05:16.305Z,50.29
2022-08-03T18:07:23.178Z,50.43
2022-08-03T18:10:05.565Z,50.62
2022-08-03T18:11:55.576Z,50.35
2022-08-03T18:14:27.591Z,50.62
2022-08-03T18:16:42.905Z,50.59
2022-08-03T18:18:45.057Z,50.81
2022-08-03T18:20:51.408Z,51.15
2022-08-03T18:22:54.834Z,51.40
2022-08-03T18:24:56.557Z,51.56
2022-08-03T18:27:02.346Z,51.47
2022-08-03T18:29:04.834Z,51.20
2022-08-03T18:31:13.268Z,51.61
2022-08-03T18:34:17.025Z,51.40
2022-08-03T18:36:00.544Z,51.83
2022-08-03T18:38:03.631Z,51.85
2022-08-03T18:40:12.390Z,51.61
2022-08-03T18:42:25.930Z,51.66
2022-08-03T18:44:46.441Z,51.87
2022-08-03T18:47:08.035Z,51.99
2022-08-03T18:49:48.588Z,51.97
2022-08-03T18:51:56.061Z,52.44
2022-08-03T18:54:12.234Z,52.30
2022-08-03T18:56:51.661Z,52.15
2022-08-03T18:59:11.218Z,52.40
2022-08-03T19:01:58.435Z,52.52
2022-08-03T19:04:13.417Z,52.40
2022-08-03T19:06:22.928Z,52.60
2022-08-03T19:08:37.272Z,52.82
2022-08-03T19:10:40.827Z,52.78
2022-08-03T19:13:30.833Z,52.91
2022-08-03T19:15:36.813Z,52.84
2022-08-03T19:17:50.292Z,52.98
2022-08-03T19:19:57.565Z,53.17
2022-08-03T19:21:59.845Z,53.26
2022-08-03T19:24:09.487Z,53.53
2022-08-03T19:26:30.545Z,53.89
2022-08-03T19:28:35.143Z,53.99
2022-08-03T19:30:53.297Z,54.19
2022-08-03T19:33:00.696Z,54.17
2022-08-03T19:35:05.447Z,54.24
2022-08-03T19:37:15.514Z,54.46
2022-08-03T19:39:17.899Z,54.70
2022-08-03T19:41:21.973Z,54.67
2022-08-03T19:43:53.330Z,54.75
2022-08-03T19:46:06.310Z,55.04
2022-08-03T19:48:25.048Z,55.50
2022-08-03T19:50:32.583Z,55.24
2022-08-03T19:52:38.248Z,55.41
2022-08-03T19:54:53.596Z,55.43
2022-08-03T19:56:56.661Z,55.51
2022-08-03T19:58:59.587Z,55.43
2022-08-03T20:01:19.458Z,55.50
2022-08-03T20:03:23.370Z,55.73
2022-08-03T20:05:27.327Z,55.88
2022-08-03T20:07:32.857Z,55.60
2022-08-03T20:09:35.894Z,55.59
2022-08-03T20:11:47.765Z,55.79
2022-08-03T20:13:51.680Z,55.44
2022-08-03T20:15:53.605Z,55.51
2022-08-03T20:17:58.792Z,55.62
2022-08-03T20:20:00.841Z,55.56
2022-08-03T20:22:02.613Z,55.81
2022-08-03T20:24:23.858Z,55.20
2022-08-03T20:26:32.279Z,55.18
2022-08-03T20:28:50.415Z,55.34
2022-08-03T20:31:10.656Z,55.30
2022-08-03T20:33:12.494Z,55.14
2022-08-03T20:35:20.919Z,55.50
2022-08-03T20:37:22.616Z,55.30
2022-08-03T20:39:24.356Z,55.53
2022-08-03T20:41:30.701Z,55.73
2022-08-03T20:43:33.628Z,55.81
2022-08-03T20:45:59.651Z,55.99
2022-08-03T20:47:57.824Z,55.97
2022-08-03T20:50:00.501Z,56.02
2022-08-03T20:52:02.471Z,55.94
2022-08-03T20:54:28.680Z,56.08
2022-08-03T20:56:31.897Z,56.16
2022-08-03T20:58:36.609Z,56.21
2022-08-03T21:00:38.458Z,56.38
2022-08-03T21:02:40.386Z,56.40
2022-08-03T21:04:45.032Z,56.67
2022-08-03T21:06:56.042Z,56.68
2022-08-03T21:09:04.260Z,56.65
2022-08-03T21:11:16.475Z,56.96
2022-08-03T21:13:32.244Z,56.98
2022-08-03T21:16:06.615Z,56.81
2022-08-03T21:17:59.437Z,56.87
2022-08-03T21:20:05.826Z,56.89
2022-08-03T21:22:09.036Z,56.98
2022-08-03T21:24:13.303Z,57.13
2022-08-03T21:26:17.506Z,57.38
2022-08-03T21:28:27.290Z,57.32
2022-08-03T21:30:30.589Z,57.50
2022-08-03T21:32:33.535Z,57.83
2022-08-03T21:34:36.044Z,57.59
2022-08-03T21:36:38.110Z,57.56
2022-08-03T21:38:40.978Z,58.06
2022-08-03T21:40:42.755Z,58.13
2022-08-03T21:42:53.049Z,58.13
2022-08-03T21:44:54.808Z,58.42
2022-08-03T21:46:58.172Z,58.25
2022-08-03T21:50:06.082Z,58.53
2022-08-03T21:51:26.024Z,58.53
2022-08-03T21:54:02.676Z,58.88
2022-08-03T21:56:17.995Z,58.79
2022-08-03T21:58:29.600Z,59.03
2022-08-03T22:00:31.518Z,59.05
2022-08-03T22:02:35.395Z,58.96
2022-08-03T22:04:54.987Z,58.92
2022-08-03T22:06:57.855Z,59.08
2022-08-03T22:08:59.898Z,59.02
2022-08-03T22:11:04.402Z,59.16
2022-08-03T22:13:06.721Z,59.16
2022-08-03T22:15:11.466Z,59.29
2022-08-03T22:17:14.474Z,59.39
2022-08-03T22:19:36.126Z,59.40
2022-08-03T22:21:39.874Z,59.67
2022-08-03T22:23:50.478Z,59.69
2022-08-03T22:25:52.851Z,59.54
2022-08-03T22:27:55.166Z,59.56
2022-08-03T22:30:02.335Z,59.24
2022-08-03T22:32:04.268Z,58.55
2022-08-03T22:34:05.976Z,57.63
2022-08-03T22:36:10.629Z,56.52
2022-08-03T22:38:12.370Z,55.83
2022-08-03T22:40:15.524Z,56.07
2022-08-03T22:42:19.637Z,56.11
2022-08-03T22:44:22.138Z,56.36
2022-08-03T22:46:25.941Z,56.32
2022-08-03T22:48:28.145Z,56.07
2022-08-03T22:50:34.830Z,55.51
2022-08-03T22:52:38.696Z,55.67
2022-08-03T22:54:41.366Z,55.16
2022-08-03T22:56:44.897Z,54.49
2022-08-03T22:58:46.543Z,54.42
2022-08-03T23:00:53.907Z,53.38
2022-08-03T23:03:00.297Z,53.75
2022-08-03T23:05:05.475Z,53.17
2022-08-03T23:07:15.191Z,52.68
2022-08-03T23:09:19.793Z,52.29
2022-08-03T23:11:23.404Z,52.19
2022-08-03T23:13:27.844Z,51.94
2022-08-03T23:15:30.526Z,51.96
2022-08-03T23:17:33.752Z,52.29
2022-08-03T23:19:44.587Z,52.03
2022-08-03T23:21:53.733Z,51.76
2022-08-03T23:24:05.401Z,51.65
2022-08-03T23:26:19.645Z,51.00
2022-08-03T23:28:22.032Z,50.19
2022-08-03T23:30:31.455Z,49.90
2022-08-03T23:32:34.899Z,50.10
2022-08-03T23:34:57.711Z,49.95
2022-08-03T23:37:01.779Z,49.83
2022-08-03T23:39:04.070Z,49.50
2022-08-03T23:41:08.411Z,49.33
2022-08-03T23:43:16.688Z,49.18
2022-08-03T23:45:35.801Z,49.28
2022-08-03T23:47:46.235Z,49.15
2022-08-03T23:49:50.049Z,48.98
2022-08-03T23:51:54.843Z,49.11
2022-08-03T23:54:31.977Z,48.92
2022-08-03T23:56:50.779Z,49.10
2022-08-03T23:59:36.535Z,49.38
